createdAt,value
2023-01-26T00:00:20.205Z,78.90
2023-01-26T00:08:33.815Z,78.80
2023-01-26T00:11:29.562Z,78.80
2023-01-26T00:16:51.565Z,78.70
2023-01-26T00:19:29.292Z,78.60
2023-01-26T00:21:58.064Z,78.50
2023-01-26T00:24:28.176Z,78.80
2023-01-26T00:27:02.337Z,79.10
2023-01-26T00:29:31.282Z,79.10
2023-01-26T00:32:17.537Z,79.00
2023-01-26T00:34:54.730Z,79.30
2023-01-26T00:37:22.923Z,79.00
2023-01-26T00:40:05.209Z,79.10
2023-01-26T00:42:40.113Z,79.10
2023-01-26T00:45:08.615Z,79.00
2023-01-26T00:47:39.372Z,79.00
2023-01-26T00:50:14.926Z,78.70
2023-01-26T00:52:45.193Z,78.90
2023-01-26T00:55:13.463Z,79.20
2023-01-26T00:57:43.587Z,79.40
2023-01-26T01:00:15.127Z,79.50
2023-01-26T01:02:43.503Z,79.50
2023-01-26T01:05:12.928Z,79.50
2023-01-26T01:07:41.519Z,79.40
2023-01-26T01:10:10.680Z,79.30
2023-01-26T01:12:39.183Z,79.40
2023-01-26T01:15:10.538Z,79.50
2023-01-26T01:17:38.937Z,79.60
2023-01-26T01:20:08.507Z,79.50
2023-01-26T01:22:37.605Z,79.60
2023-01-26T01:25:06.317Z,79.50
2023-01-26T01:27:34.366Z,79.60
2023-01-26T01:30:07.627Z,79.50
2023-01-26T01:32:37.526Z,79.50
2023-01-26T01:35:06.106Z,79.90
2023-01-26T01:37:36.766Z,80.00
2023-01-26T01:40:05.300Z,80.00
2023-01-26T01:42:34.728Z,80.00
2023-01-26T01:45:22.054Z,80.10
2023-01-26T01:47:51.894Z,80.00
2023-01-26T01:50:20.892Z,80.00
2023-01-26T01:52:50.110Z,80.00
2023-01-26T01:55:20.829Z,80.10
2023-01-26T01:57:51.920Z,80.00
2023-01-26T02:00:24.977Z,80.20
2023-01-26T02:03:12.139Z,80.30
2023-01-26T02:05:51.048Z,80.50
2023-01-26T02:08:21.591Z,80.70
2023-01-26T02:10:54.461Z,80.80
2023-01-26T02:13:24.926Z,80.70
2023-01-26T02:15:55.223Z,80.60
2023-01-26T02:18:48.462Z,80.50
2023-01-26T02:21:23.696Z,80.40
2023-01-26T02:24:23.789Z,80.50
2023-01-26T02:26:57.465Z,80.40
2023-01-26T02:29:35.030Z,80.50
2023-01-26T02:32:08.364Z,80.60
2023-01-26T02:34:40.420Z,80.70
2023-01-26T02:37:14.725Z,80.80
2023-01-26T02:39:57.424Z,80.90
2023-01-26T02:42:54.696Z,80.80
2023-01-26T02:45:32.058Z,80.70
2023-01-26T02:48:08.521Z,80.90
2023-01-26T02:50:40.658Z,80.80
2023-01-26T02:53:09.911Z,81.40
2023-01-26T02:55:41.871Z,81.80
2023-01-26T02:58:11.346Z,81.90
2023-01-26T03:00:46.120Z,82.00
2023-01-26T03:03:20.336Z,82.20
2023-01-26T03:06:00.383Z,82.50
2023-01-26T03:08:34.465Z,82.70
2023-01-26T03:11:17.621Z,82.80
2023-01-26T03:13:52.085Z,82.90
2023-01-26T03:19:23.289Z,82.90
2023-01-26T03:25:38.555Z,83.10
2023-01-26T03:28:07.874Z,83.00
2023-01-26T03:30:42.863Z,83.10
2023-01-26T03:33:15.075Z,83.10
2023-01-26T03:35:46.643Z,83.00
2023-01-26T03:38:16.584Z,83.00
2023-01-26T03:41:17.197Z,83.00
2023-01-26T03:44:04.402Z,83.10
2023-01-26T03:46:57.601Z,83.10
2023-01-26T03:49:44.224Z,83.10
2023-01-26T03:52:34.436Z,83.00
2023-01-26T03:55:23.662Z,83.10
2023-01-26T03:57:56.354Z,83.30
2023-01-26T04:00:26.365Z,83.30
2023-01-26T04:03:16.095Z,83.30
2023-01-26T04:06:15.742Z,83.40
2023-01-26T04:08:48.738Z,83.30
2023-01-26T04:11:17.190Z,83.40
2023-01-26T04:14:02.944Z,83.20
2023-01-26T04:16:51.326Z,83.30
2023-01-26T04:19:39.146Z,83.40
2023-01-26T04:22:10.028Z,83.40
2023-01-26T04:24:40.138Z,83.50
2023-01-26T04:27:12.116Z,83.40
2023-01-26T04:29:43.525Z,83.40
2023-01-26T04:32:14.748Z,83.30
2023-01-26T04:34:45.413Z,83.20
2023-01-26T04:37:21.085Z,83.10
2023-01-26T04:39:50.446Z,83.10
2023-01-26T04:42:20.185Z,83.10
2023-01-26T04:44:50.591Z,83.20
2023-01-26T04:47:20.154Z,83.20
2023-01-26T04:49:49.957Z,83.10
2023-01-26T04:52:22.655Z,83.00
2023-01-26T04:54:50.860Z,82.90
2023-01-26T04:57:21.282Z,82.80
2023-01-26T04:59:52.082Z,82.90
2023-01-26T05:02:23.504Z,83.00
2023-01-26T05:04:53.554Z,83.00
2023-01-26T05:07:24.801Z,83.00
2023-01-26T05:10:00.330Z,83.00
2023-01-26T05:12:51.669Z,83.00
2023-01-26T05:15:56.280Z,82.90
2023-01-26T05:18:45.326Z,83.00
2023-01-26T05:21:34.769Z,83.20
2023-01-26T05:24:03.965Z,83.30
2023-01-26T05:27:11.701Z,83.20
2023-01-26T05:29:43.785Z,83.20
2023-01-26T05:32:13.192Z,83.20
2023-01-26T05:34:41.839Z,83.20
2023-01-26T05:37:14.809Z,83.40
2023-01-26T05:39:46.403Z,83.30
2023-01-26T05:42:17.658Z,83.30
2023-01-26T05:44:51.697Z,83.50
2023-01-26T05:47:21.542Z,83.60
2023-01-26T05:49:51.556Z,83.50
2023-01-26T05:52:27.888Z,83.30
2023-01-26T05:54:56.818Z,83.40
2023-01-26T05:57:26.266Z,83.30
2023-01-26T05:59:56.511Z,83.30
2023-01-26T06:02:27.458Z,83.40
2023-01-26T06:04:57.006Z,83.20
2023-01-26T06:07:28.787Z,83.20
2023-01-26T06:10:12.453Z,83.20
2023-01-26T06:15:46.833Z,82.90
2023-01-26T06:18:18.360Z,82.90
2023-01-26T06:21:17.782Z,82.90
2023-01-26T06:23:46.857Z,83.00
2023-01-26T06:26:16.330Z,82.90
2023-01-26T06:28:45.037Z,82.90
2023-01-26T06:34:01.453Z,82.80
2023-01-26T06:36:33.898Z,82.80
2023-01-26T06:39:05.050Z,82.70
2023-01-26T06:41:35.231Z,82.70
2023-01-26T06:44:05.238Z,82.80
2023-01-26T06:46:35.601Z,82.80
2023-01-26T06:49:10.125Z,82.70
2023-01-26T06:51:48.709Z,82.70
2023-01-26T06:54:17.771Z,82.70
2023-01-26T06:57:18.170Z,82.60
2023-01-26T07:00:07.360Z,82.40
2023-01-26T07:03:06.985Z,82.40
2023-01-26T07:05:35.965Z,82.40
2023-01-26T07:08:09.924Z,82.30
2023-01-26T07:10:39.425Z,82.10
2023-01-26T07:13:09.274Z,81.90
2023-01-26T07:15:38.268Z,81.90
2023-01-26T07:18:07.676Z,81.80
2023-01-26T07:20:37.431Z,82.00
2023-01-26T07:23:05.746Z,81.70
2023-01-26T07:25:35.910Z,81.90
2023-01-26T07:28:03.936Z,82.20
2023-01-26T07:30:32.252Z,82.30
2023-01-26T07:33:03.422Z,82.30
2023-01-26T07:35:32.469Z,82.20
2023-01-26T07:38:00.779Z,82.30
2023-01-26T07:40:30.139Z,82.10
2023-01-26T07:43:04.913Z,82.20
2023-01-26T07:45:51.447Z,82.00
2023-01-26T07:48:19.868Z,82.00
2023-01-26T07:50:48.922Z,82.00
2023-01-26T07:53:19.549Z,82.00
2023-01-26T07:58:31.515Z,82.00
2023-01-26T08:01:05.773Z,82.40
2023-01-26T08:03:34.231Z,82.40
2023-01-26T08:06:02.663Z,82.30
2023-01-26T08:08:31.312Z,82.00
2023-01-26T08:11:00.614Z,81.80
2023-01-26T08:13:35.736Z,81.90
2023-01-26T08:16:05.585Z,81.80
2023-01-26T08:18:35.656Z,81.60
2023-01-26T08:21:04.389Z,81.40
2023-01-26T08:23:32.575Z,81.10
2023-01-26T08:26:22.332Z,81.30
2023-01-26T08:31:42.219Z,81.70
2023-01-26T08:34:10.392Z,81.70
2023-01-26T08:36:40.002Z,81.80
2023-01-26T08:39:08.407Z,81.80
2023-01-26T08:41:37.121Z,82.10
2023-01-26T08:44:05.895Z,81.90
2023-01-26T08:46:34.295Z,81.80
2023-01-26T08:49:03.948Z,81.70
2023-01-26T08:51:33.184Z,81.80
2023-01-26T08:54:01.290Z,81.70
2023-01-26T08:56:29.614Z,81.70
2023-01-26T08:58:58.267Z,81.60
2023-01-26T09:01:29.764Z,81.10
2023-01-26T09:03:58.435Z,80.70
2023-01-26T09:09:14.270Z,80.30
2023-01-26T09:11:42.415Z,80.40
2023-01-26T09:14:10.691Z,80.70
2023-01-26T09:16:39.050Z,80.60
2023-01-26T09:19:07.204Z,80.70
2023-01-26T09:21:36.346Z,80.90
2023-01-26T09:24:06.103Z,80.60
2023-01-26T09:26:37.990Z,80.20
2023-01-26T09:29:05.993Z,80.20
2023-01-26T09:31:34.579Z,80.10
2023-01-26T09:34:03.236Z,79.90
2023-01-26T09:39:14.226Z,79.90
2023-01-26T09:41:51.738Z,80.00
2023-01-26T09:44:21.463Z,79.50
2023-01-26T09:47:03.529Z,80.50
2023-01-26T09:49:39.842Z,80.30
2023-01-26T09:52:12.589Z,79.70
2023-01-26T09:54:44.499Z,80.00
2023-01-26T09:57:15.372Z,79.80
2023-01-26T09:59:45.850Z,79.70
2023-01-26T10:02:22.027Z,79.80
2023-01-26T10:04:54.388Z,79.60
2023-01-26T10:07:22.479Z,79.90
2023-01-26T10:09:54.472Z,79.30
2023-01-26T10:12:25.025Z,79.40
2023-01-26T10:14:57.448Z,79.40
2023-01-26T10:17:29.490Z,79.40
2023-01-26T10:20:04.068Z,79.40
2023-01-26T10:22:36.040Z,78.70
2023-01-26T10:25:12.902Z,78.60
2023-01-26T10:27:41.240Z,78.70
2023-01-26T10:30:35.147Z,78.10
2023-01-26T10:36:08.633Z,77.90
2023-01-26T10:38:41.725Z,78.40
2023-01-26T11:02:28.578Z,76.00
2023-01-26T11:05:22.150Z,75.90
2023-01-26T11:07:58.892Z,75.70
2023-01-26T11:10:28.983Z,76.30
2023-01-26T11:15:50.437Z,75.50
2023-01-26T11:18:25.150Z,76.00
2023-01-26T11:20:55.320Z,75.90
2023-01-26T11:23:29.520Z,75.60
2023-01-26T11:32:05.728Z,75.50
2023-01-26T11:34:37.625Z,75.80
2023-01-26T11:37:15.220Z,75.80
2023-01-26T11:42:39.587Z,76.00
2023-01-26T11:45:15.926Z,75.70
2023-01-26T11:48:08.344Z,75.70
2023-01-26T11:50:43.488Z,75.60
2023-01-26T11:53:32.792Z,75.40
2023-01-26T11:59:20.125Z,75.50
2023-01-26T12:01:53.903Z,75.00
2023-01-26T12:04:23.537Z,74.70
2023-01-26T12:06:55.699Z,74.50
2023-01-26T12:09:28.520Z,74.70
2023-01-26T12:11:59.872Z,74.60
2023-01-26T12:14:31.096Z,74.70
2023-01-26T12:17:18.423Z,74.60
2023-01-26T12:22:33.922Z,75.20
2023-01-26T12:28:07.884Z,74.60
2023-01-26T12:33:07.702Z,75.10
2023-01-26T12:39:01.117Z,74.50
2023-01-26T12:41:33.006Z,74.00
2023-01-26T12:44:04.503Z,74.10
2023-01-26T12:49:13.932Z,74.10
2023-01-26T12:51:45.657Z,73.80
2023-01-26T12:54:19.786Z,74.40
2023-01-26T12:56:51.433Z,74.00
2023-01-26T12:59:46.400Z,74.20
2023-01-26T13:08:52.991Z,74.20
2023-01-26T13:11:28.055Z,73.50
2023-01-26T13:19:56.679Z,73.80
2023-01-26T13:25:20.794Z,73.90
2023-01-26T13:27:57.447Z,74.50
2023-01-26T13:30:34.308Z,74.70
2023-01-26T13:33:21.426Z,74.10
2023-01-26T13:38:33.612Z,73.80
2023-01-26T13:41:04.351Z,74.80
2023-01-26T13:46:37.454Z,74.20
2023-01-26T13:49:06.193Z,74.60
2023-01-26T13:51:40.257Z,74.70
2023-01-26T13:54:12.598Z,74.80
2023-01-26T13:56:42.956Z,75.30
2023-01-26T13:59:12.624Z,75.90
2023-01-26T14:02:05.411Z,75.20
2023-01-26T14:04:35.326Z,75.90
2023-01-26T14:12:35.823Z,75.30
2023-01-26T14:15:14.701Z,75.40
2023-01-26T14:17:48.977Z,75.50
2023-01-26T14:26:03.599Z,75.20
2023-01-26T14:28:35.675Z,76.30
2023-01-26T14:31:08.220Z,76.30
2023-01-26T14:33:38.728Z,76.10
2023-01-26T14:36:11.834Z,76.40
2023-01-26T14:38:44.691Z,76.40
2023-01-26T14:41:23.140Z,75.90
2023-01-26T14:43:57.114Z,75.80
2023-01-26T14:46:30.292Z,75.90
2023-01-26T14:49:02.075Z,76.10
2023-01-26T14:51:32.624Z,75.60
2023-01-26T14:54:02.004Z,75.60
2023-01-26T14:56:33.715Z,75.80
2023-01-26T14:59:04.209Z,75.50
2023-01-26T15:01:37.801Z,75.40
2023-01-26T15:04:12.211Z,75.50
2023-01-26T15:06:40.495Z,75.70
2023-01-26T15:09:21.775Z,75.80
2023-01-26T15:20:53.626Z,75.20
2023-01-26T15:23:23.969Z,75.50
2023-01-26T15:26:16.098Z,75.30
2023-01-26T15:28:44.979Z,75.30
2023-01-26T15:31:22.002Z,75.40
2023-01-26T15:33:56.246Z,75.60
2023-01-26T15:36:28.076Z,75.90
2023-01-26T15:39:04.952Z,76.10
2023-01-26T15:41:33.224Z,76.20
2023-01-26T15:44:04.747Z,76.00
2023-01-26T15:46:34.199Z,75.90
2023-01-26T15:51:47.805Z,76.10
2023-01-26T15:54:15.988Z,76.40
2023-01-26T15:56:47.610Z,76.00
2023-01-26T15:59:16.655Z,76.60
2023-01-26T16:01:46.295Z,76.50
2023-01-26T16:04:15.134Z,76.70
2023-01-26T16:06:43.310Z,76.70
2023-01-26T16:09:13.506Z,76.50
2023-01-26T16:11:45.142Z,76.70
2023-01-26T16:14:14.730Z,76.60
2023-01-26T16:19:33.704Z,76.60
2023-01-26T16:24:53.337Z,76.70
2023-01-26T16:27:23.826Z,77.10
2023-01-26T16:29:55.482Z,77.10
2023-01-26T16:32:28.388Z,77.20
2023-01-26T16:34:57.322Z,77.40
2023-01-26T16:37:25.920Z,77.50
2023-01-26T16:39:55.886Z,77.80
2023-01-26T16:42:24.788Z,78.10
2023-01-26T16:44:53.661Z,78.20
2023-01-26T16:47:25.395Z,78.40
2023-01-26T16:49:54.306Z,78.10
2023-01-26T16:52:22.777Z,78.10
2023-01-26T16:54:51.709Z,78.10
2023-01-26T16:59:53.436Z,78.20
2023-01-26T17:02:24.625Z,78.20
2023-01-26T17:07:53.733Z,78.60
2023-01-26T17:10:24.499Z,78.70
2023-01-26T17:12:54.479Z,78.40
2023-01-26T17:15:24.703Z,78.20
2023-01-26T17:25:58.540Z,78.40
2023-01-26T17:28:28.392Z,78.60
2023-01-26T17:33:50.717Z,78.80
2023-01-26T17:36:19.715Z,79.10
2023-01-26T17:38:50.541Z,79.20
2023-01-26T17:43:54.934Z,78.90
2023-01-26T17:46:23.915Z,78.90
2023-01-26T17:48:52.080Z,79.20
2023-01-26T17:51:21.377Z,79.20
2023-01-26T17:53:54.615Z,79.00
2023-01-26T17:56:26.596Z,79.40
2023-01-26T17:58:56.061Z,79.20
2023-01-26T18:01:27.564Z,79.30
2023-01-26T18:03:56.698Z,79.50
2023-01-26T18:06:25.422Z,79.60
2023-01-26T18:08:55.315Z,79.50
2023-01-26T18:14:07.519Z,80.00
2023-01-26T18:16:36.732Z,80.00
2023-01-26T18:19:10.059Z,80.40
2023-01-26T18:21:38.460Z,80.70
2023-01-26T18:24:07.589Z,81.00
2023-01-26T18:26:37.951Z,81.40
2023-01-26T18:29:08.883Z,81.70
2023-01-26T18:31:37.951Z,81.70
2023-01-26T18:34:07.835Z,81.90
2023-01-26T18:36:36.416Z,81.80
2023-01-26T18:39:07.677Z,81.70
2023-01-26T18:41:37.283Z,81.70
2023-01-26T18:44:05.645Z,81.70
2023-01-26T18:46:35.480Z,81.90
2023-01-26T18:49:05.391Z,82.10
2023-01-26T18:51:35.051Z,82.10
2023-01-26T18:54:05.755Z,82.10
2023-01-26T18:56:37.796Z,82.20
2023-01-26T18:59:07.126Z,82.20
2023-01-26T19:01:37.326Z,82.30
2023-01-26T19:04:07.645Z,82.50
2023-01-26T19:06:39.103Z,82.60
2023-01-26T19:09:08.707Z,82.60
2023-01-26T19:11:40.251Z,82.60
2023-01-26T19:14:09.634Z,82.60
2023-01-26T19:16:40.636Z,82.50
2023-01-26T19:19:09.855Z,82.60
2023-01-26T19:21:38.660Z,82.70
2023-01-26T19:24:07.444Z,82.60
2023-01-26T19:26:37.419Z,82.60
2023-01-26T19:29:10.969Z,82.80
2023-01-26T19:31:42.666Z,82.70
2023-01-26T19:34:14.257Z,82.50
2023-01-26T19:36:43.500Z,82.60
2023-01-26T19:39:14.253Z,82.70
2023-01-26T19:41:44.929Z,82.70
2023-01-26T19:44:13.950Z,82.60
2023-01-26T19:46:44.085Z,82.70
2023-01-26T19:49:13.634Z,82.70
2023-01-26T19:51:42.434Z,82.80
2023-01-26T19:54:10.865Z,82.70
2023-01-26T19:56:39.407Z,82.60
2023-01-26T19:59:10.617Z,82.60
2023-01-26T20:01:39.234Z,82.70
2023-01-26T20:04:12.625Z,82.70
2023-01-26T20:06:41.846Z,82.80
2023-01-26T20:09:10.650Z,82.80
2023-01-26T20:11:40.073Z,82.70
2023-01-26T20:14:10.286Z,82.80
2023-01-26T20:16:40.063Z,83.00
2023-01-26T20:19:12.743Z,83.00
2023-01-26T20:21:41.284Z,82.80
2023-01-26T20:24:13.013Z,83.00
2023-01-26T20:26:42.943Z,83.00
2023-01-26T20:29:13.478Z,83.10
2023-01-26T20:31:44.637Z,83.20
2023-01-26T20:34:15.614Z,83.20
2023-01-26T20:36:46.635Z,83.20
2023-01-26T20:39:16.655Z,83.20
2023-01-26T20:41:47.045Z,83.20
2023-01-26T20:44:18.239Z,83.20
2023-01-26T20:46:47.782Z,83.20
2023-01-26T20:49:21.937Z,83.30
2023-01-26T20:51:52.058Z,83.30
2023-01-26T20:54:23.165Z,83.40
2023-01-26T20:56:52.426Z,83.40
2023-01-26T20:59:23.863Z,83.30
2023-01-26T21:01:52.632Z,83.20
2023-01-26T21:04:23.159Z,83.00
2023-01-26T21:06:54.359Z,83.10
2023-01-26T21:09:24.704Z,83.10
2023-01-26T21:11:52.782Z,83.20
2023-01-26T21:14:23.276Z,83.10
2023-01-26T21:16:51.902Z,83.00
2023-01-26T21:19:23.932Z,83.00
2023-01-26T21:22:00.024Z,83.00
2023-01-26T21:24:28.930Z,83.10
2023-01-26T21:26:57.401Z,83.20
2023-01-26T21:29:27.145Z,83.20
2023-01-26T21:31:55.900Z,83.30
2023-01-26T21:34:25.280Z,83.60
2023-01-26T21:36:56.583Z,83.70
2023-01-26T21:39:25.672Z,83.80
2023-01-26T21:41:59.016Z,83.80
2023-01-26T21:44:28.486Z,83.70
2023-01-26T21:46:58.274Z,83.70
2023-01-26T21:49:32.856Z,83.70
2023-01-26T21:52:20.347Z,83.80
2023-01-26T21:54:49.824Z,83.60
2023-01-26T21:57:35.674Z,83.60
2023-01-26T22:00:04.924Z,83.60
2023-01-26T22:02:33.212Z,83.40
2023-01-26T22:05:01.282Z,83.50
2023-01-26T22:07:32.331Z,83.60
2023-01-26T22:10:01.956Z,83.70
2023-01-26T22:12:31.900Z,83.60
2023-01-26T22:17:50.301Z,83.50
2023-01-26T22:23:39.089Z,83.30
2023-01-26T22:26:08.230Z,83.50
2023-01-26T22:28:37.811Z,83.50
2023-01-26T22:31:09.232Z,83.50
2023-01-26T22:33:40.069Z,83.40
2023-01-26T22:36:09.917Z,83.40
2023-01-26T22:38:44.232Z,83.40
2023-01-26T22:41:19.048Z,83.30
2023-01-26T22:43:48.407Z,83.30
2023-01-26T22:46:21.209Z,83.30
2023-01-26T22:48:51.380Z,83.30
2023-01-26T22:51:21.519Z,83.20
2023-01-26T22:53:53.851Z,83.20
2023-01-26T22:56:24.528Z,83.30
2023-01-26T22:58:58.422Z,83.30
2023-01-26T23:01:37.714Z,83.40
2023-01-26T23:04:35.302Z,83.10
2023-01-26T23:16:23.652Z,83.00
2023-01-26T23:21:45.173Z,83.00
2023-01-26T23:24:17.551Z,83.10
2023-01-26T23:26:48.729Z,83.00
2023-01-26T23:29:18.772Z,83.10
2023-01-26T23:31:48.830Z,82.90
2023-01-26T23:34:20.749Z,82.80
2023-01-26T23:37:02.077Z,82.80
2023-01-26T23:39:54.833Z,82.80
2023-01-26T23:42:55.806Z,82.70
2023-01-26T23:45:41.917Z,82.80
2023-01-26T23:50:50.238Z,82.90
2023-01-26T23:53:30.076Z,82.90
2023-01-26T23:56:02.350Z,83.00
2023-01-26T23:58:32.275Z,83.10
